createdAt,value
2023-05-10T00:04:44.141Z,15.5
2023-05-10T00:09:46.230Z,15.5
2023-05-10T00:14:48.215Z,15.45
2023-05-10T00:19:50.356Z,15.41
2023-05-10T00:24:51.896Z,15.42
2023-05-10T00:29:53.637Z,15.39
2023-05-10T00:34:55.572Z,15.37
2023-05-10T00:39:56.957Z,15.38
2023-05-10T00:44:58.977Z,15.35
2023-05-10T00:50:00.290Z,15.28
2023-05-10T00:55:01.989Z,15.26
2023-05-10T01:00:03.208Z,15.27
2023-05-10T01:05:04.640Z,15.2
2023-05-10T01:10:06.109Z,15.2
2023-05-10T01:15:07.644Z,15.2
2023-05-10T01:20:09.607Z,15.17
2023-05-10T01:25:10.873Z,15.12
2023-05-10T01:30:15.202Z,15.12
2023-05-10T01:35:14.398Z,15.1
2023-05-10T01:40:16.596Z,14.98
2023-05-10T01:45:18.374Z,14.94
2023-05-10T01:50:19.722Z,14.94
2023-05-10T01:55:21.531Z,14.91
2023-05-10T02:00:22.848Z,14.9
2023-05-10T02:05:24.885Z,14.92
2023-05-10T02:10:26.384Z,14.91
2023-05-10T02:15:27.902Z,14.85
2023-05-10T02:20:29.795Z,14.86
2023-05-10T02:25:31.136Z,14.88
2023-05-10T02:30:32.418Z,14.84
2023-05-10T02:35:33.847Z,14.85
2023-05-10T02:40:35.600Z,14.87
2023-05-10T02:45:37.753Z,14.81
2023-05-10T02:50:39.445Z,14.81
2023-05-10T02:55:40.742Z,14.81
2023-05-10T03:00:42.075Z,14.78
2023-05-10T03:05:43.807Z,14.73
2023-05-10T03:10:45.615Z,14.71
2023-05-10T03:15:47.281Z,14.69
2023-05-10T03:20:48.969Z,14.61
2023-05-10T03:25:50.940Z,14.64
2023-05-10T03:30:52.843Z,14.62
2023-05-10T03:35:54.031Z,14.57
2023-05-10T03:40:56.171Z,14.55
2023-05-10T03:45:58.249Z,14.56
2023-05-10T03:51:00.183Z,14.57
2023-05-10T03:56:01.372Z,14.53
2023-05-10T04:01:03.541Z,14.56
2023-05-10T04:06:05.240Z,14.59
2023-05-10T04:11:06.529Z,14.55
2023-05-10T04:16:08.272Z,14.56
2023-05-10T04:21:09.482Z,14.59
2023-05-10T04:26:11.263Z,14.59
2023-05-10T04:31:12.790Z,14.58
2023-05-10T04:36:14.226Z,14.6
2023-05-10T04:41:15.928Z,14.63
2023-05-10T04:46:17.561Z,14.57
2023-05-10T04:51:19.499Z,14.49
2023-05-10T04:56:20.907Z,14.52
2023-05-10T05:01:22.373Z,14.48
2023-05-10T05:06:24.081Z,14.49
2023-05-10T05:11:26.002Z,14.53
2023-05-10T05:16:28.053Z,14.54
2023-05-10T05:21:29.714Z,14.51
2023-05-10T05:26:31.413Z,14.48
2023-05-10T05:31:32.945Z,14.45
2023-05-10T05:36:36.483Z,14.38
2023-05-10T05:41:36.184Z,14.4
2023-05-10T05:46:37.515Z,14.45
2023-05-10T05:51:39.479Z,14.44
2023-05-10T05:56:41.154Z,14.46
2023-05-10T06:01:43.276Z,14.54
2023-05-10T06:06:44.673Z,14.6
2023-05-10T06:11:46.380Z,14.52
2023-05-10T06:16:48.544Z,14.52
2023-05-10T06:21:51.229Z,14.59
2023-05-10T06:26:51.648Z,14.58
2023-05-10T06:31:53.164Z,14.65
2023-05-10T06:36:54.390Z,14.77
2023-05-10T06:41:55.573Z,14.83
2023-05-10T06:46:56.959Z,14.84
2023-05-10T06:51:59.059Z,14.84
2023-05-10T06:57:02.504Z,14.99
2023-05-10T07:02:02.619Z,15.14
2023-05-10T07:07:04.079Z,15.26
2023-05-10T07:12:05.807Z,15.5
2023-05-10T07:17:07.108Z,15.64
2023-05-10T07:22:08.558Z,15.8
2023-05-10T07:27:09.882Z,15.95
2023-05-10T07:32:11.907Z,16.2
2023-05-10T07:37:13.608Z,16.61
2023-05-10T07:42:15.504Z,17.02
2023-05-10T07:47:16.887Z,17.11
2023-05-10T07:52:18.394Z,17.27
2023-05-10T07:57:20.106Z,17.49
2023-05-10T08:02:21.859Z,17.66
2023-05-10T08:07:23.657Z,17.77
2023-05-10T08:12:24.979Z,17.83
2023-05-10T08:17:26.864Z,17.83
2023-05-10T08:22:29.019Z,17.78
2023-05-10T08:27:30.203Z,17.67
2023-05-10T08:32:31.762Z,17.59
2023-05-10T08:37:33.875Z,17.73
2023-05-10T08:42:36.033Z,18.04
2023-05-10T08:47:37.270Z,18.52
2023-05-10T08:52:44.079Z,18.87
2023-05-10T08:57:41.067Z,19.37
2023-05-10T09:02:42.773Z,19.73
2023-05-10T09:07:44.869Z,20.51
2023-05-10T09:12:46.583Z,21.18
2023-05-10T09:17:48.795Z,21.33
2023-05-10T09:22:50.120Z,21.18
2023-05-10T09:27:51.589Z,20.98
2023-05-10T09:32:53.395Z,20.73
2023-05-10T09:37:54.585Z,20.48
2023-05-10T09:42:56.628Z,20.42
2023-05-10T09:47:58.454Z,20.33
2023-05-10T09:53:00.558Z,20.11
2023-05-10T09:58:02.119Z,19.9
2023-05-10T10:03:03.386Z,19.66
2023-05-10T10:08:04.648Z,19.52
2023-05-10T10:13:06.682Z,19.57
2023-05-10T10:18:08.819Z,19.69
2023-05-10T10:23:09.891Z,19.7
2023-05-10T10:28:11.607Z,19.62
2023-05-10T10:33:20.458Z,19.58
2023-05-10T10:38:14.778Z,19.32
2023-05-10T10:43:16.307Z,19.19
2023-05-10T11:23:35.428Z,19
2023-05-10T11:43:41.793Z,19.19
2023-05-10T12:03:47.251Z,19.25
2023-05-10T12:08:49.139Z,19.29
2023-05-10T13:29:16.794Z,17.19
2023-05-10T13:44:22.163Z,16.92
2023-05-10T13:49:23.634Z,16.84
2023-05-10T13:54:25.233Z,16.85
2023-05-10T13:59:26.577Z,16.87
2023-05-10T14:04:28.526Z,16.83
2023-05-10T14:09:29.740Z,16.84
2023-05-10T14:14:31.693Z,16.86
2023-05-10T14:19:33.554Z,16.78
2023-05-10T14:24:34.726Z,16.69
2023-05-10T14:29:36.928Z,16.57
2023-05-10T14:34:38.916Z,16.51
2023-05-10T14:39:40.622Z,16.45
2023-05-10T14:44:42.609Z,16.4
2023-05-10T14:49:44.252Z,16.31
2023-05-10T14:54:46.402Z,16.16
2023-05-10T14:59:48.390Z,16.14
2023-05-10T15:04:50.274Z,16.08
2023-05-10T15:09:52.115Z,15.9
2023-05-10T15:14:54.232Z,15.81
2023-05-10T15:19:55.728Z,15.81
2023-05-10T15:24:57.900Z,15.81
2023-05-10T15:29:59.783Z,15.76
2023-05-10T15:35:01.113Z,15.72
2023-05-10T15:40:02.332Z,15.76
2023-05-10T15:45:04.153Z,15.69
2023-05-10T15:50:05.439Z,15.68
2023-05-10T15:55:06.987Z,15.68
2023-05-10T16:00:08.288Z,15.61
2023-05-10T16:05:09.481Z,15.58
2023-05-10T16:10:10.732Z,15.55
2023-05-10T16:15:12.676Z,15.47
2023-05-10T16:20:14.179Z,15.34
2023-05-10T16:25:16.094Z,15.29
2023-05-10T16:30:18.175Z,15.22
2023-05-10T16:35:20.051Z,15.07
2023-05-10T16:40:21.423Z,15.06
2023-05-10T16:45:23.164Z,15.03
2023-05-10T16:50:24.702Z,14.85
2023-05-10T16:55:26.567Z,14.8
2023-05-10T17:00:28.399Z,14.74
2023-05-10T17:05:30.152Z,14.56
2023-05-10T17:10:32.316Z,14.44
2023-05-10T17:15:34.305Z,14.37
2023-05-10T17:20:35.796Z,14.21
2023-05-10T17:25:37.427Z,14.04
2023-05-10T17:30:39.195Z,13.99
2023-05-10T17:35:41.165Z,13.92
2023-05-10T17:40:43.070Z,13.81
2023-05-10T17:45:45.093Z,13.71
2023-05-10T17:50:46.998Z,13.7
2023-05-10T17:55:48.664Z,13.62
2023-05-10T18:00:50.259Z,13.51
2023-05-10T18:05:52.200Z,13.48
2023-05-10T18:10:53.927Z,13.42
2023-05-10T18:15:55.825Z,13.19
2023-05-10T18:20:57.443Z,13.08
2023-05-10T18:25:58.804Z,13.03
2023-05-10T18:31:00.071Z,12.95
2023-05-10T18:36:01.812Z,12.81
2023-05-10T18:41:03.508Z,12.77
2023-05-10T18:46:05.115Z,12.71
2023-05-10T18:51:06.859Z,12.62
2023-05-10T18:56:08.806Z,12.62
2023-05-10T19:01:10.345Z,12.63
2023-05-10T19:06:12.116Z,12.59
2023-05-10T19:11:13.998Z,12.54
2023-05-10T19:16:15.317Z,12.55
2023-05-10T19:21:16.907Z,12.55
2023-05-10T19:26:18.510Z,12.45
2023-05-10T19:31:20.506Z,12.43
2023-05-10T19:36:22.058Z,12.45
2023-05-10T19:41:24.219Z,12.42
2023-05-10T19:46:25.438Z,12.36
2023-05-10T19:51:26.578Z,12.36
2023-05-10T19:56:28.130Z,12.36
2023-05-10T20:01:30.315Z,12.24
2023-05-10T20:06:31.761Z,12.25
2023-05-10T20:11:33.499Z,12.26
2023-05-10T20:16:35.193Z,12.24
2023-05-10T20:21:36.812Z,12.22
2023-05-10T20:26:38.544Z,12.23
2023-05-10T20:31:40.988Z,12.24
2023-05-10T20:36:41.475Z,12.17
2023-05-10T20:41:43.147Z,12.17
2023-05-10T20:46:44.633Z,12.18
2023-05-10T20:51:46.255Z,12.14
2023-05-10T20:56:48.234Z,12.13
2023-05-10T21:01:50.004Z,12.11
2023-05-10T21:06:53.357Z,12.09
2023-05-10T21:11:53.478Z,12.06
2023-05-10T21:16:55.297Z,12.08
2023-05-10T21:21:57.144Z,12.1
2023-05-10T21:26:58.343Z,12.06
2023-05-10T21:32:00.102Z,12.06
2023-05-10T21:37:01.570Z,12.03
2023-05-10T21:42:03.840Z,11.99
2023-05-10T21:47:05.278Z,11.96
2023-05-10T21:52:07.125Z,11.97
2023-05-10T21:57:09.024Z,11.96
2023-05-10T22:02:10.936Z,11.89
2023-05-10T22:07:12.224Z,11.85
2023-05-10T22:12:14.085Z,11.86
2023-05-10T22:17:16.216Z,11.78
2023-05-10T22:22:18.054Z,11.78
2023-05-10T22:27:19.750Z,11.77
2023-05-10T22:32:21.080Z,11.71
2023-05-10T22:37:22.513Z,11.65
2023-05-10T22:42:23.760Z,11.62
2023-05-10T22:47:25.739Z,11.61
2023-05-10T22:52:27.301Z,11.51
2023-05-10T22:57:29.257Z,11.52
2023-05-10T23:02:30.593Z,11.46
2023-05-10T23:07:32.150Z,11.44
2023-05-10T23:12:34.163Z,11.43
2023-05-10T23:17:35.929Z,11.43
2023-05-10T23:22:37.813Z,11.42
2023-05-10T23:27:39.363Z,11.37
2023-05-10T23:32:40.667Z,11.33
2023-05-10T23:37:41.955Z,11.32
2023-05-10T23:42:43.255Z,11.25
2023-05-10T23:47:45.440Z,11.17
2023-05-10T23:52:47.186Z,11.16
2023-05-10T23:57:48.660Z,11.15
